sensor_id;sensor_type;location;lat;lon;timestamp;pressure;altitude;pressure_sealevel;temperature;humidity
10366;BME280;5229;41.820;23.490;2023-05-17T00:02:00;89559.47;;;15.50;71.35
10366;BME280;5229;41.820;23.490;2023-05-17T00:04:26;89558.66;;;15.46;70.65
10366;BME280;5229;41.820;23.490;2023-05-17T00:06:53;89567.19;;;15.43;70.55
10366;BME280;5229;41.820;23.490;2023-05-17T00:09:20;89558.25;;;15.44;70.67
10366;BME280;5229;41.820;23.490;2023-05-17T00:11:48;89553.38;;;15.43;71.03
10366;BME280;5229;41.820;23.490;2023-05-17T00:14:15;89560.38;;;15.39;70.56
10366;BME280;5229;41.820;23.490;2023-05-17T00:16:42;89566.59;;;15.34;70.62
10366;BME280;5229;41.820;23.490;2023-05-17T00:19:08;89574.44;;;15.34;70.49
10366;BME280;5229;41.820;23.490;2023-05-17T00:21:35;89572.16;;;15.33;71.20
10366;BME280;5229;41.820;23.490;2023-05-17T00:24:02;89570.28;;;15.33;70.81
10366;BME280;5229;41.820;23.490;2023-05-17T00:26:30;89559.84;;;15.33;71.06
10366;BME280;5229;41.820;23.490;2023-05-17T00:28:59;89566.28;;;15.36;70.81
10366;BME280;5229;41.820;23.490;2023-05-17T00:31:26;89559.84;;;15.33;71.24
10366;BME280;5229;41.820;23.490;2023-05-17T00:33:53;89564.66;;;15.31;70.75
10366;BME280;5229;41.820;23.490;2023-05-17T00:36:20;89555.31;;;15.30;71.07
10366;BME280;5229;41.820;23.490;2023-05-17T00:38:46;89562.06;;;15.31;71.18
10366;BME280;5229;41.820;23.490;2023-05-17T00:41:13;89565.00;;;15.30;70.73
10366;BME280;5229;41.820;23.490;2023-05-17T00:43:40;89559.03;;;15.29;71.25
10366;BME280;5229;41.820;23.490;2023-05-17T00:46:08;89560.56;;;15.30;71.42
10366;BME280;5229;41.820;23.490;2023-05-17T00:48:36;89560.22;;;15.32;71.25
10366;BME280;5229;41.820;23.490;2023-05-17T00:51:03;89558.34;;;15.32;70.99
10366;BME280;5229;41.820;23.490;2023-05-17T00:53:30;89547.16;;;15.32;70.84
10366;BME280;5229;41.820;23.490;2023-05-17T00:55:58;89549.69;;;15.28;70.69
10366;BME280;5229;41.820;23.490;2023-05-17T00:58:25;89538.75;;;15.23;71.28
10366;BME280;5229;41.820;23.490;2023-05-17T01:00:52;89543.13;;;15.19;70.78
10366;BME280;5229;41.820;23.490;2023-05-17T01:03:20;89538.50;;;15.12;71.10
10366;BME280;5229;41.820;23.490;2023-05-17T01:05:48;89536.84;;;15.04;70.94
10366;BME280;5229;41.820;23.490;2023-05-17T01:08:15;89534.09;;;14.97;70.99
10366;BME280;5229;41.820;23.490;2023-05-17T01:10:48;89523.47;;;14.90;70.74
10366;BME280;5229;41.820;23.490;2023-05-17T01:13:23;89519.22;;;14.82;71.07
10366;BME280;5229;41.820;23.490;2023-05-17T01:15:58;89527.66;;;14.76;71.31
10366;BME280;5229;41.820;23.490;2023-05-17T01:18:37;89523.69;;;14.66;71.10
10366;BME280;5229;41.820;23.490;2023-05-17T01:21:20;89534.50;;;14.64;71.06
10366;BME280;5229;41.820;23.490;2023-05-17T01:23:57;89530.78;;;14.65;71.31
10366;BME280;5229;41.820;23.490;2023-05-17T01:26:36;89529.28;;;14.64;70.85
10366;BME280;5229;41.820;23.490;2023-05-17T01:29:04;89535.22;;;14.65;70.95
10366;BME280;5229;41.820;23.490;2023-05-17T01:31:34;89530.78;;;14.65;70.80
10366;BME280;5229;41.820;23.490;2023-05-17T01:34:05;89526.28;;;14.66;70.56
10366;BME280;5229;41.820;23.490;2023-05-17T01:36:32;89536.00;;;14.65;70.92
10366;BME280;5229;41.820;23.490;2023-05-17T01:38:59;89541.53;;;14.64;70.48
10366;BME280;5229;41.820;23.490;2023-05-17T01:41:29;89534.06;;;14.62;70.67
10366;BME280;5229;41.820;23.490;2023-05-17T01:44:06;89528.00;;;14.58;71.00
10366;BME280;5229;41.820;23.490;2023-05-17T01:46:39;89531.22;;;14.52;70.61
10366;BME280;5229;41.820;23.490;2023-05-17T01:49:11;89535.91;;;14.46;70.75
10366;BME280;5229;41.820;23.490;2023-05-17T01:51:45;89531.72;;;14.42;71.20
10366;BME280;5229;41.820;23.490;2023-05-17T01:54:14;89524.91;;;14.37;71.03
10366;BME280;5229;41.820;23.490;2023-05-17T01:56:56;89524.81;;;14.34;70.96
10366;BME280;5229;41.820;23.490;2023-05-17T01:59:25;89529.94;;;14.30;70.60
10366;BME280;5229;41.820;23.490;2023-05-17T02:01:57;89524.28;;;14.28;70.89
10366;BME280;5229;41.820;23.490;2023-05-17T02:04:28;89526.06;;;14.24;71.03
10366;BME280;5229;41.820;23.490;2023-05-17T02:06:55;89531.28;;;14.24;71.10
10366;BME280;5229;41.820;23.490;2023-05-17T02:09:22;89539.34;;;14.19;71.17
10366;BME280;5229;41.820;23.490;2023-05-17T02:11:49;89537.84;;;14.18;70.99
10366;BME280;5229;41.820;23.490;2023-05-17T02:14:15;89537.06;;;14.18;71.16
10366;BME280;5229;41.820;23.490;2023-05-17T02:16:44;89538.91;;;14.17;71.31
10366;BME280;5229;41.820;23.490;2023-05-17T02:19:11;89534.34;;;14.14;71.38
10366;BME280;5229;41.820;23.490;2023-05-17T02:21:38;89532.78;;;14.10;71.32
10366;BME280;5229;41.820;23.490;2023-05-17T02:24:05;89525.28;;;14.08;71.50
10366;BME280;5229;41.820;23.490;2023-05-17T02:26:32;89526.28;;;14.04;71.64
10366;BME280;5229;41.820;23.490;2023-05-17T02:28:59;89528.06;;;14.00;71.58
10366;BME280;5229;41.820;23.490;2023-05-17T02:31:25;89521.66;;;13.97;71.55
10366;BME280;5229;41.820;23.490;2023-05-17T02:33:54;89534.25;;;13.95;72.00
10366;BME280;5229;41.820;23.490;2023-05-17T02:36:21;89526.38;;;13.92;71.76
10366;BME280;5229;41.820;23.490;2023-05-17T02:38:47;89528.09;;;13.88;71.68
10366;BME280;5229;41.820;23.490;2023-05-17T02:41:15;89536.94;;;13.83;71.48
10366;BME280;5229;41.820;23.490;2023-05-17T02:43:41;89532.06;;;13.82;71.76
10366;BME280;5229;41.820;23.490;2023-05-17T02:46:08;89528.69;;;13.81;71.74
10366;BME280;5229;41.820;23.490;2023-05-17T02:48:35;89530.19;;;13.82;71.50
10366;BME280;5229;41.820;23.490;2023-05-17T02:51:03;89522.69;;;13.81;71.53
10366;BME280;5229;41.820;23.490;2023-05-17T02:53:30;89532.72;;;13.79;71.89
10366;BME280;5229;41.820;23.490;2023-05-17T02:55:57;89535.22;;;13.75;71.43
10366;BME280;5229;41.820;23.490;2023-05-17T02:58:24;89536.66;;;13.73;71.64
10366;BME280;5229;41.820;23.490;2023-05-17T03:00:51;89536.13;;;13.67;71.64
10366;BME280;5229;41.820;23.490;2023-05-17T03:03:17;89540.81;;;13.62;71.56
10366;BME280;5229;41.820;23.490;2023-05-17T03:05:44;89533.25;;;13.57;71.72
10366;BME280;5229;41.820;23.490;2023-05-17T03:08:12;89549.44;;;13.50;71.90
10366;BME280;5229;41.820;23.490;2023-05-17T03:10:39;89557.50;;;13.45;71.97
10366;BME280;5229;41.820;23.490;2023-05-17T03:13:06;89546.22;;;13.41;71.87
10366;BME280;5229;41.820;23.490;2023-05-17T03:15:33;89555.09;;;13.40;72.07
10366;BME280;5229;41.820;23.490;2023-05-17T03:18:00;89548.72;;;13.38;71.96
10366;BME280;5229;41.820;23.490;2023-05-17T03:20:26;89549.06;;;13.36;71.87
10366;BME280;5229;41.820;23.490;2023-05-17T03:22:53;89554.59;;;13.35;72.17
10366;BME280;5229;41.820;23.490;2023-05-17T03:25:21;89556.88;;;13.36;72.01
10366;BME280;5229;41.820;23.490;2023-05-17T03:27:48;89557.19;;;13.35;72.37
10366;BME280;5229;41.820;23.490;2023-05-17T03:30:15;89561.34;;;13.36;71.97
10366;BME280;5229;41.820;23.490;2023-05-17T03:32:42;89554.19;;;13.33;71.84
10366;BME280;5229;41.820;23.490;2023-05-17T03:35:08;89558.19;;;13.30;72.06
10366;BME280;5229;41.820;23.490;2023-05-17T03:37:35;89550.28;;;13.27;72.21
10366;BME280;5229;41.820;23.490;2023-05-17T03:40:02;89552.34;;;13.21;71.59
10366;BME280;5229;41.820;23.490;2023-05-17T03:42:31;89551.06;;;13.15;71.73
10366;BME280;5229;41.820;23.490;2023-05-17T03:44:59;89553.56;;;13.12;71.44
10366;BME280;5229;41.820;23.490;2023-05-17T03:47:25;89549.88;;;13.13;72.24
10366;BME280;5229;41.820;23.490;2023-05-17T03:49:52;89547.38;;;13.16;72.42
10366;BME280;5229;41.820;23.490;2023-05-17T03:52:19;89546.28;;;13.17;72.17
10366;BME280;5229;41.820;23.490;2023-05-17T03:54:46;89538.16;;;13.19;71.56
10366;BME280;5229;41.820;23.490;2023-05-17T03:57:12;89530.75;;;13.21;72.11
10366;BME280;5229;41.820;23.490;2023-05-17T03:59:41;89535.41;;;13.27;71.87
10366;BME280;5229;41.820;23.490;2023-05-17T04:02:07;89543.09;;;13.36;71.97
10366;BME280;5229;41.820;23.490;2023-05-17T04:04:34;89544.03;;;13.43;72.03
10366;BME280;5229;41.820;23.490;2023-05-17T04:07:01;89541.72;;;13.54;72.27
10366;BME280;5229;41.820;23.490;2023-05-17T04:09:29;89529.41;;;13.66;72.24
10366;BME280;5229;41.820;23.490;2023-05-17T04:11:56;89530.84;;;13.79;71.79
10366;BME280;5229;41.820;23.490;2023-05-17T04:14:23;89531.56;;;13.92;71.92
10366;BME280;5229;41.820;23.490;2023-05-17T04:16:51;89531.50;;;14.04;71.56
10366;BME280;5229;41.820;23.490;2023-05-17T04:19:18;89538.84;;;14.14;71.46
10366;BME280;5229;41.820;23.490;2023-05-17T04:21:44;89536.59;;;14.28;71.80
10366;BME280;5229;41.820;23.490;2023-05-17T04:24:11;89536.94;;;14.42;71.65
10366;BME280;5229;41.820;23.490;2023-05-17T04:26:38;89538.00;;;14.56;71.65
10366;BME280;5229;41.820;23.490;2023-05-17T04:29:05;89548.09;;;14.73;71.18
10366;BME280;5229;41.820;23.490;2023-05-17T04:31:32;89540.25;;;14.89;71.14
10366;BME280;5229;41.820;23.490;2023-05-17T04:34:00;89537.94;;;15.03;71.48
10366;BME280;5229;41.820;23.490;2023-05-17T04:36:27;89537.81;;;15.15;71.17
10366;BME280;5229;41.820;23.490;2023-05-17T04:38:54;89539.91;;;15.25;70.41
10366;BME280;5229;41.820;23.490;2023-05-17T04:41:21;89535.59;;;15.33;70.49
10366;BME280;5229;41.820;23.490;2023-05-17T04:43:48;89539.88;;;15.41;70.40
10366;BME280;5229;41.820;23.490;2023-05-17T04:46:15;89540.78;;;15.48;70.37
10366;BME280;5229;41.820;23.490;2023-05-17T04:48:41;89541.00;;;15.59;70.12
10366;BME280;5229;41.820;23.490;2023-05-17T04:51:09;89543.81;;;15.69;70.11
10366;BME280;5229;41.820;23.490;2023-05-17T04:53:36;89545.19;;;15.82;69.83
10366;BME280;5229;41.820;23.490;2023-05-17T04:56:03;89537.88;;;15.91;70.00
10366;BME280;5229;41.820;23.490;2023-05-17T04:58:30;89540.34;;;16.03;69.25
10366;BME280;5229;41.820;23.490;2023-05-17T05:00:57;89544.31;;;16.16;69.18
10366;BME280;5229;41.820;23.490;2023-05-17T05:03:24;89544.22;;;16.32;68.80
10366;BME280;5229;41.820;23.490;2023-05-17T05:05:51;89550.47;;;16.46;68.38
10366;BME280;5229;41.820;23.490;2023-05-17T05:08:19;89547.25;;;16.56;68.05
10366;BME280;5229;41.820;23.490;2023-05-17T05:10:46;89549.19;;;16.59;67.39
10366;BME280;5229;41.820;23.490;2023-05-17T05:13:13;89559.78;;;16.66;67.41
10366;BME280;5229;41.820;23.490;2023-05-17T05:15:40;89557.22;;;16.70;67.72
10366;BME280;5229;41.820;23.490;2023-05-17T05:18:06;89555.88;;;16.79;67.70
10366;BME280;5229;41.820;23.490;2023-05-17T05:20:33;89559.09;;;16.95;67.38
10366;BME280;5229;41.820;23.490;2023-05-17T05:23:00;89563.03;;;17.08;67.30
10366;BME280;5229;41.820;23.490;2023-05-17T05:25:31;89568.91;;;17.24;67.25
10366;BME280;5229;41.820;23.490;2023-05-17T05:27:58;89567.34;;;17.46;66.31
10366;BME280;5229;41.820;23.490;2023-05-17T05:30:24;89566.13;;;17.66;65.96
10366;BME280;5229;41.820;23.490;2023-05-17T05:32:51;89567.13;;;17.88;65.58
10366;BME280;5229;41.820;23.490;2023-05-17T05:35:19;89567.00;;;18.10;65.07
10366;BME280;5229;41.820;23.490;2023-05-17T05:37:50;89563.88;;;18.31;64.64
10366;BME280;5229;41.820;23.490;2023-05-17T05:40:17;89570.81;;;18.46;64.05
10366;BME280;5229;41.820;23.490;2023-05-17T05:42:45;89563.78;;;18.60;63.53
10366;BME280;5229;41.820;23.490;2023-05-17T05:45:12;89572.50;;;18.68;63.57
10366;BME280;5229;41.820;23.490;2023-05-17T05:47:39;89572.16;;;18.73;63.28
10366;BME280;5229;41.820;23.490;2023-05-17T05:50:07;89565.09;;;18.80;63.74
10366;BME280;5229;41.820;23.490;2023-05-17T05:52:34;89565.94;;;18.91;63.05
10366;BME280;5229;41.820;23.490;2023-05-17T05:55:01;89556.63;;;18.97;63.09
10366;BME280;5229;41.820;23.490;2023-05-17T05:57:28;89556.25;;;18.99;62.73
10366;BME280;5229;41.820;23.490;2023-05-17T05:59:56;89569.06;;;19.04;62.20
10366;BME280;5229;41.820;23.490;2023-05-17T06:02:23;89567.19;;;19.08;62.17
10366;BME280;5229;41.820;23.490;2023-05-17T06:04:50;89569.16;;;19.18;62.07
10366;BME280;5229;41.820;23.490;2023-05-17T06:07:17;89570.72;;;19.26;61.55
10366;BME280;5229;41.820;23.490;2023-05-17T06:09:44;89580.06;;;19.20;61.12
10366;BME280;5229;41.820;23.490;2023-05-17T06:12:11;89572.84;;;19.10;61.29
10366;BME280;5229;41.820;23.490;2023-05-17T06:14:37;89578.06;;;19.03;61.16
10366;BME280;5229;41.820;23.490;2023-05-17T06:17:05;89587.84;;;19.06;61.18
10366;BME280;5229;41.820;23.490;2023-05-17T06:19:32;89586.00;;;19.10;61.01
10366;BME280;5229;41.820;23.490;2023-05-17T06:21:59;89584.16;;;19.14;60.34
10366;BME280;5229;41.820;23.490;2023-05-17T06:24:26;89583.06;;;19.22;60.28
10366;BME280;5229;41.820;23.490;2023-05-17T06:26:53;89578.34;;;19.38;60.32
10366;BME280;5229;41.820;23.490;2023-05-17T06:29:19;89590.88;;;19.55;59.63
10366;BME280;5229;41.820;23.490;2023-05-17T06:31:47;89581.97;;;19.77;59.16
10366;BME280;5229;41.820;23.490;2023-05-17T06:34:15;89576.41;;;19.96;58.69
10366;BME280;5229;41.820;23.490;2023-05-17T06:36:42;89578.03;;;20.11;58.44
10366;BME280;5229;41.820;23.490;2023-05-17T06:39:08;89587.84;;;20.25;57.89
10366;BME280;5229;41.820;23.490;2023-05-17T06:41:35;89599.94;;;20.40;57.84
10366;BME280;5229;41.820;23.490;2023-05-17T06:44:02;89597.75;;;20.63;56.74
10366;BME280;5229;41.820;23.490;2023-05-17T06:46:29;89606.84;;;20.86;56.54
10366;BME280;5229;41.820;23.490;2023-05-17T06:48:55;89601.97;;;20.95;56.15
10366;BME280;5229;41.820;23.490;2023-05-17T06:51:23;89602.38;;;21.04;55.39
10366;BME280;5229;41.820;23.490;2023-05-17T06:53:50;89602.38;;;21.15;54.72
10366;BME280;5229;41.820;23.490;2023-05-17T06:56:17;89604.63;;;21.37;54.30
10366;BME280;5229;41.820;23.490;2023-05-17T06:58:44;89601.63;;;21.56;53.72
10366;BME280;5229;41.820;23.490;2023-05-17T07:01:11;89596.31;;;21.67;53.55
10366;BME280;5229;41.820;23.490;2023-05-17T07:03:38;89601.22;;;21.68;53.33
10366;BME280;5229;41.820;23.490;2023-05-17T07:06:05;89592.91;;;21.66;53.07
10366;BME280;5229;41.820;23.490;2023-05-17T07:08:33;89586.50;;;21.71;52.75
10366;BME280;5229;41.820;23.490;2023-05-17T07:11:00;89591.06;;;21.77;52.33
10366;BME280;5229;41.820;23.490;2023-05-17T07:13:27;89604.63;;;21.79;51.62
10366;BME280;5229;41.820;23.490;2023-05-17T07:15:54;89597.09;;;21.78;51.55
10366;BME280;5229;41.820;23.490;2023-05-17T07:18:20;89600.84;;;21.73;50.90
10366;BME280;5229;41.820;23.490;2023-05-17T07:20:47;89596.34;;;21.60;50.80
10366;BME280;5229;41.820;23.490;2023-05-17T07:23:14;89590.31;;;21.45;51.03
10366;BME280;5229;41.820;23.490;2023-05-17T07:25:42;89594.09;;;21.34;50.39
10366;BME280;5229;41.820;23.490;2023-05-17T07:28:09;89586.53;;;21.29;50.48
10366;BME280;5229;41.820;23.490;2023-05-17T07:30:36;89586.94;;;21.31;50.46
10366;BME280;5229;41.820;23.490;2023-05-17T07:33:02;89580.16;;;21.30;50.22
10366;BME280;5229;41.820;23.490;2023-05-17T07:35:29;89575.63;;;21.30;50.25
10366;BME280;5229;41.820;23.490;2023-05-17T07:37:56;89578.25;;;21.37;50.58
10366;BME280;5229;41.820;23.490;2023-05-17T07:40:23;89580.53;;;21.42;50.63
10366;BME280;5229;41.820;23.490;2023-05-17T07:42:51;89583.16;;;21.46;50.78
10366;BME280;5229;41.820;23.490;2023-05-17T07:45:18;89576.75;;;21.40;50.66
10366;BME280;5229;41.820;23.490;2023-05-17T07:47:45;89583.91;;;21.32;50.58
10366;BME280;5229;41.820;23.490;2023-05-17T07:50:12;89597.84;;;21.22;50.49
10366;BME280;5229;41.820;23.490;2023-05-17T07:52:38;89595.22;;;21.08;50.45
10366;BME280;5229;41.820;23.490;2023-05-17T07:55:06;89595.56;;;20.93;50.83
10366;BME280;5229;41.820;23.490;2023-05-17T07:57:33;89596.28;;;20.79;50.77
10366;BME280;5229;41.820;23.490;2023-05-17T08:00:01;89594.75;;;20.64;50.55
10366;BME280;5229;41.820;23.490;2023-05-17T08:02:28;89604.13;;;20.51;50.99
10366;BME280;5229;41.820;23.490;2023-05-17T08:04:55;89607.84;;;20.36;51.17
10366;BME280;5229;41.820;23.490;2023-05-17T08:07:21;89608.16;;;20.21;51.88
10366;BME280;5229;41.820;23.490;2023-05-17T08:09:48;89599.41;;;20.06;52.98
10366;BME280;5229;41.820;23.490;2023-05-17T08:12:15;89610.22;;;19.90;54.06
10366;BME280;5229;41.820;23.490;2023-05-17T08:14:42;89610.50;;;19.75;54.59
10366;BME280;5229;41.820;23.490;2023-05-17T08:17:10;89627.69;;;19.55;55.50
10366;BME280;5229;41.820;23.490;2023-05-17T08:19:37;89619.97;;;19.29;55.52
10366;BME280;5229;41.820;23.490;2023-05-17T08:22:04;89637.00;;;19.02;56.50
10366;BME280;5229;41.820;23.490;2023-05-17T08:24:31;89626.59;;;18.72;57.78
10366;BME280;5229;41.820;23.490;2023-05-17T08:26:57;89630.06;;;18.47;58.93
10366;BME280;5229;41.820;23.490;2023-05-17T08:29:24;89617.44;;;18.26;59.30
10366;BME280;5229;41.820;23.490;2023-05-17T08:31:52;89611.97;;;18.09;59.46
10366;BME280;5229;41.820;23.490;2023-05-17T08:34:20;89610.72;;;17.96;59.66
10366;BME280;5229;41.820;23.490;2023-05-17T08:36:47;89606.88;;;17.90;60.41
10366;BME280;5229;41.820;23.490;2023-05-17T08:39:14;89601.66;;;17.93;60.71
10366;BME280;5229;41.820;23.490;2023-05-17T08:41:41;89603.63;;;18.00;61.21
10366;BME280;5229;41.820;23.490;2023-05-17T08:44:09;89607.13;;;18.11;61.95
10366;BME280;5229;41.820;23.490;2023-05-17T08:46:39;89606.94;;;18.26;62.42
10366;BME280;5229;41.820;23.490;2023-05-17T08:49:07;89611.31;;;18.45;62.65
10366;BME280;5229;41.820;23.490;2023-05-17T08:51:39;89598.34;;;18.62;62.82
10366;BME280;5229;41.820;23.490;2023-05-17T08:54:06;89594.06;;;18.84;62.48
10366;BME280;5229;41.820;23.490;2023-05-17T08:56:34;89598.06;;;19.18;62.36
10366;BME280;5229;41.820;23.490;2023-05-17T08:59:05;89603.19;;;19.47;62.15
10366;BME280;5229;41.820;23.490;2023-05-17T09:01:34;89593.75;;;20.07;61.91
10366;BME280;5229;41.820;23.490;2023-05-17T09:04:03;89602.75;;;21.20;60.02
10366;BME280;5229;41.820;23.490;2023-05-17T09:06:32;89597.03;;;21.99;58.42
10366;BME280;5229;41.820;23.490;2023-05-17T09:09:01;89604.44;;;22.39;57.58
10366;BME280;5229;41.820;23.490;2023-05-17T09:11:32;89597.97;;;23.30;56.31
10366;BME280;5229;41.820;23.490;2023-05-17T09:13:59;89600.44;;;24.69;53.83
10366;BME280;5229;41.820;23.490;2023-05-17T09:16:27;89606.13;;;26.23;51.50
10366;BME280;5229;41.820;23.490;2023-05-17T09:18:55;89605.19;;;27.31;49.29
10366;BME280;5229;41.820;23.490;2023-05-17T09:21:22;89603.28;;;27.79;47.52
10366;BME280;5229;41.820;23.490;2023-05-17T09:23:50;89598.28;;;27.81;46.26
10366;BME280;5229;41.820;23.490;2023-05-17T09:26:19;89587.53;;;27.37;45.55
10366;BME280;5229;41.820;23.490;2023-05-17T09:28:46;89595.59;;;26.78;45.54
10366;BME280;5229;41.820;23.490;2023-05-17T09:31:15;89604.31;;;26.59;45.76
10366;BME280;5229;41.820;23.490;2023-05-17T09:33:43;89601.97;;;26.65;44.89
10366;BME280;5229;41.820;23.490;2023-05-17T09:36:14;89598.84;;;26.27;44.95
10366;BME280;5229;41.820;23.490;2023-05-17T09:38:42;89594.09;;;25.69;46.05
10366;BME280;5229;41.820;23.490;2023-05-17T09:41:09;89598.03;;;25.08;46.76
10366;BME280;5229;41.820;23.490;2023-05-17T09:43:37;89589.00;;;24.42;47.13
10366;BME280;5229;41.820;23.490;2023-05-17T09:46:04;89591.84;;;23.84;48.28
10366;BME280;5229;41.820;23.490;2023-05-17T09:48:31;89595.34;;;23.30;48.97
10366;BME280;5229;41.820;23.490;2023-05-17T09:50:59;89599.03;;;22.77;49.97
10366;BME280;5229;41.820;23.490;2023-05-17T09:53:28;89597.69;;;22.31;51.02
10366;BME280;5229;41.820;23.490;2023-05-17T09:55:56;89596.31;;;21.91;51.60
10366;BME280;5229;41.820;23.490;2023-05-17T09:58:23;89593.72;;;21.56;52.53
10366;BME280;5229;41.820;23.490;2023-05-17T10:00:53;89591.09;;;21.28;53.19
10366;BME280;5229;41.820;23.490;2023-05-17T10:03:20;89582.03;;;21.08;54.04
10366;BME280;5229;41.820;23.490;2023-05-17T10:05:50;89580.88;;;20.95;54.73
10366;BME280;5229;41.820;23.490;2023-05-17T10:10:47;89580.81;;;20.71;54.69
10366;BME280;5229;41.820;23.490;2023-05-17T10:13:17;89579.31;;;20.70;55.35
10366;BME280;5229;41.820;23.490;2023-05-17T10:15:49;89574.81;;;20.67;55.29
10366;BME280;5229;41.820;23.490;2023-05-17T10:18:18;89569.16;;;20.61;55.55
10366;BME280;5229;41.820;23.490;2023-05-17T10:20:46;89571.78;;;20.61;56.19
10366;BME280;5229;41.820;23.490;2023-05-17T10:23:14;89570.66;;;20.62;55.92
10366;BME280;5229;41.820;23.490;2023-05-17T10:25:42;89565.75;;;20.64;56.05
10366;BME280;5229;41.820;23.490;2023-05-17T10:28:09;89568.78;;;20.73;56.28
10366;BME280;5229;41.820;23.490;2023-05-17T10:30:37;89554.50;;;20.95;55.93
10366;BME280;5229;41.820;23.490;2023-05-17T10:33:05;89554.88;;;21.43;55.08
10366;BME280;5229;41.820;23.490;2023-05-17T10:35:35;89548.81;;;21.84;54.10
10366;BME280;5229;41.820;23.490;2023-05-17T10:38:02;89543.41;;;22.12;53.66
10366;BME280;5229;41.820;23.490;2023-05-17T10:40:29;89544.09;;;22.37;53.00
10366;BME280;5229;41.820;23.490;2023-05-17T10:42:58;89544.00;;;22.51;51.69
10366;BME280;5229;41.820;23.490;2023-05-17T10:45:25;89534.19;;;22.55;51.19
10366;BME280;5229;41.820;23.490;2023-05-17T10:47:53;89531.94;;;22.54;51.06
10366;BME280;5229;41.820;23.490;2023-05-17T10:50:22;89534.97;;;22.45;51.37
10366;BME280;5229;41.820;23.490;2023-05-17T10:52:51;89539.56;;;22.31;51.54
10366;BME280;5229;41.820;23.490;2023-05-17T10:55:21;89533.59;;;22.23;52.17
10366;BME280;5229;41.820;23.490;2023-05-17T10:58:13;89533.94;;;22.25;51.41
10366;BME280;5229;41.820;23.490;2023-05-17T11:00:45;89535.03;;;22.31;51.21
10366;BME280;5229;41.820;23.490;2023-05-17T11:03:14;89530.16;;;22.30;51.13
10366;BME280;5229;41.820;23.490;2023-05-17T11:05:41;89529.75;;;22.31;51.23
10366;BME280;5229;41.820;23.490;2023-05-17T11:08:15;89524.06;;;22.36;50.49
10366;BME280;5229;41.820;23.490;2023-05-17T11:11:07;89527.78;;;22.46;49.16
10366;BME280;5229;41.820;23.490;2023-05-17T11:13:43;89520.59;;;22.57;48.29
10366;BME280;5229;41.820;23.490;2023-05-17T11:16:13;89519.06;;;22.59;46.91
10366;BME280;5229;41.820;23.490;2023-05-17T11:18:47;89519.13;;;22.49;46.98
10366;BME280;5229;41.820;23.490;2023-05-17T11:21:14;89510.47;;;22.41;47.67
10366;BME280;5229;41.820;23.490;2023-05-17T11:23:43;89511.63;;;22.33;47.64
10366;BME280;5229;41.820;23.490;2023-05-17T11:26:20;89511.66;;;22.26;47.74
10366;BME280;5229;41.820;23.490;2023-05-17T11:28:47;89507.13;;;22.30;48.44
10366;BME280;5229;41.820;23.490;2023-05-17T11:31:14;89504.88;;;22.29;48.54
10366;BME280;5229;41.820;23.490;2023-05-17T11:33:42;89514.72;;;22.21;48.81
10366;BME280;5229;41.820;23.490;2023-05-17T11:36:14;89512.50;;;22.06;48.65
10366;BME280;5229;41.820;23.490;2023-05-17T11:38:47;89514.81;;;21.93;48.67
10366;BME280;5229;41.820;23.490;2023-05-17T11:41:19;89507.34;;;21.81;48.93
10366;BME280;5229;41.820;23.490;2023-05-17T11:43:46;89500.94;;;21.65;49.16
10366;BME280;5229;41.820;23.490;2023-05-17T11:46:21;89497.19;;;21.48;49.32
10366;BME280;5229;41.820;23.490;2023-05-17T11:48:49;89494.59;;;21.34;51.06
10366;BME280;5229;41.820;23.490;2023-05-17T11:51:16;89484.44;;;21.12;52.30
10366;BME280;5229;41.820;23.490;2023-05-17T11:53:46;89494.25;;;20.90;53.80
10366;BME280;5229;41.820;23.490;2023-05-17T11:56:13;89491.22;;;20.64;54.71
10366;BME280;5229;41.820;23.490;2023-05-17T11:58:42;89494.19;;;20.41;55.60
10366;BME280;5229;41.820;23.490;2023-05-17T12:01:09;89489.28;;;20.22;56.23
10366;BME280;5229;41.820;23.490;2023-05-17T12:03:36;89486.56;;;20.01;56.71
10366;BME280;5229;41.820;23.490;2023-05-17T12:06:07;89487.59;;;19.79;57.64
10366;BME280;5229;41.820;23.490;2023-05-17T12:08:35;89480.00;;;19.60;58.24
10366;BME280;5229;41.820;23.490;2023-05-17T12:11:05;89477.72;;;19.48;58.99
10366;BME280;5229;41.820;23.490;2023-05-17T12:13:33;89481.41;;;19.36;59.11
10366;BME280;5229;41.820;23.490;2023-05-17T12:16:02;89480.97;;;19.27;59.35
10366;BME280;5229;41.820;23.490;2023-05-17T12:18:34;89488.00;;;19.13;59.79
10366;BME280;5229;41.820;23.490;2023-05-17T12:21:02;89486.38;;;18.94;59.91
10366;BME280;5229;41.820;23.490;2023-05-17T12:23:30;89487.41;;;18.79;59.86
10366;BME280;5229;41.820;23.490;2023-05-17T12:26:06;89489.94;;;18.69;60.32
10366;BME280;5229;41.820;23.490;2023-05-17T12:28:33;89485.03;;;18.64;60.55
10366;BME280;5229;41.820;23.490;2023-05-17T12:31:02;89486.94;;;18.67;61.22
10366;BME280;5229;41.820;23.490;2023-05-17T12:33:30;89490.72;;;18.73;61.66
10366;BME280;5229;41.820;23.490;2023-05-17T12:35:59;89495.28;;;18.79;61.75
10366;BME280;5229;41.820;23.490;2023-05-17T12:38:27;89489.69;;;18.84;61.59
10366;BME280;5229;41.820;23.490;2023-05-17T12:40:57;89489.31;;;18.86;61.66
10366;BME280;5229;41.820;23.490;2023-05-17T12:43:26;89498.28;;;18.78;61.76
10366;BME280;5229;41.820;23.490;2023-05-17T12:46:00;89497.44;;;18.67;61.75
10366;BME280;5229;41.820;23.490;2023-05-17T12:48:27;89507.50;;;18.58;61.87
10366;BME280;5229;41.820;23.490;2023-05-17T12:50:54;89509.34;;;18.54;62.17
10366;BME280;5229;41.820;23.490;2023-05-17T12:53:21;89508.91;;;18.48;62.59
10366;BME280;5229;41.820;23.490;2023-05-17T12:55:49;89507.78;;;18.46;62.52
10366;BME280;5229;41.820;23.490;2023-05-17T12:58:16;89501.03;;;18.45;62.66
10366;BME280;5229;41.820;23.490;2023-05-17T13:00:57;89502.06;;;18.37;62.27
10366;BME280;5229;41.820;23.490;2023-05-17T13:03:24;89499.69;;;18.28;62.20
10366;BME280;5229;41.820;23.490;2023-05-17T13:06:00;89498.81;;;18.14;62.34
10366;BME280;5229;41.820;23.490;2023-05-17T13:08:27;89486.28;;;18.00;62.03